Airports Slovenia Ljubljana Jože Pucnik Airport

Ljubljana Jože Pucnik Airport (LJLJ / LJU)

Facts about Ljubljana Jože Pucnik Airport

Name Ljubljana Jože Pucnik Airport
City Ljubljana
Country Slovenia
ICAO code LJLJ
IATA code LJU
Elevation 388.0104 meters (1273 feet)

Weather

METAR

Metar data retrieved Friday, 19 July 2024 at 23:25 UTC (10 minutes ago)

LJLJ 192300Z 04004KT 020V080 9999 -SHRA FEW005 SCT060 BKN120 19/18 Q1016 RESHRA NOSIG

Live traffic

Navigraph Charts (account required)